Time;durP1;ratioP1;P1;durP2;ratioP2;P2;SDS_P1;SDS_P2;PMS_P1;PMS_P2;Temp;Humidity;BMP_temperature;BMP_pressure;BME280_temperature;BME280_humidity;BME280_pressure;Samples;Min_cycle;Max_cycle;Signal;HPM_P1;HPM_P2
2022/04/28 00:00:48;;;;;;;;;;;;;;;;;;5092224;28;20389;-74
2022/04/28 00:03:14;;;;;;;;;;;;;;;;;;5092459;28;19908;-73
2022/04/28 00:05:40;;;;;;;;;;;;;;;;;;5092560;28;20053;-74
2022/04/28 00:08:06;;;;;;;;;;;;;;;;;;5092305;28;19973;-74
2022/04/28 00:10:32;;;;;;;;;;;;;;;;;;5092091;28;19908;-74
2022/04/28 00:13:00;;;;;;;;;;;;;;;;;;5092156;28;19912;-74
2022/04/28 00:15:26;;;;;;;;;;;;;;;;;;5092481;28;19908;-74
2022/04/28 00:17:52;;;;;;;;;;;;;;;;;;5091816;28;19919;-74
2022/04/28 00:20:18;;;;;;;;;;;;;;;;;;5091891;28;19972;-74
2022/04/28 00:22:44;;;;;;;;;;;;;;;;;;5092113;28;19947;-74
2022/04/28 00:25:10;;;;;;;;;;;;;;;;;;5091302;28;19912;-74
2022/04/28 00:27:35;;;;;;;;;;;;;;;;;;5091972;28;19912;-75
2022/04/28 00:30:01;;;;;;;;;;;;;;;;;;5073360;28;20368;-74
2022/04/28 00:32:27;;;;;;;;;;;;;;;;;;5092044;28;19962;-73
2022/04/28 00:34:53;;;;;;;;;;;;;;;;;;5091792;28;19915;-74
2022/04/28 00:37:19;;;;;;;;;;;;;;;;;;5091899;28;20003;-73
2022/04/28 00:39:45;;;;;;;;;;;;;;;;;;5091489;28;19981;-73
2022/04/28 00:42:11;;;;;;;;;;;;;;;;;;5091913;28;20268;-73
2022/04/28 00:44:37;;;;;;;;;;;;;;;;;;5091842;28;19977;-73
2022/04/28 00:47:03;;;;;;;;;;;;;;;;;;5091714;28;19908;-73
2022/04/28 00:52:13;;;;;;;;;;;;;;;;;;5091748;28;19915;-73
2022/04/28 00:54:39;;;;;;;;;;;;;;;;;;5091667;28;19908;-75
2022/04/28 00:57:05;;;;;;;;;;;;;;;;;;5091568;28;19914;-73
2022/04/28 00:59:31;;;;;;;;;;;;;;;;;;5091277;28;19916;-73
2022/04/28 01:01:57;;;;;;;;;;;;;;;;;;5091502;28;20356;-73
2022/04/28 01:04:23;;;;;;;;;;;;;;;;;;5091704;28;19908;-73
2022/04/28 01:06:51;;;;;;;;;;;;;;;;;;5091595;28;20485;-72
2022/04/28 01:09:17;;;;;;;;;;;;;;;;;;5091033;28;19908;-72
2022/04/28 01:11:43;;;;;;;;;;;;;;;;;;5091564;28;19908;-73
2022/04/28 01:14:08;;;;;;;;;;;;;;;;;;5091550;28;19930;-73
2022/04/28 01:16:34;;;;;;;;;;;;;;;;;;5091425;28;20364;-76
2022/04/28 01:19:00;;;;;;;;;;;;;;;;;;5091103;28;20000;-74
2022/04/28 01:21:26;;;;;;;;;;;;;;;;;;5091562;28;19951;-74
2022/04/28 01:23:52;;;;;;;;;;;;;;;;;;5091417;28;20379;-72
2022/04/28 01:26:18;;;;;;;;;;;;;;;;;;5091493;28;20352;-72
2022/04/28 01:28:44;;;;;;;;;;;;;;;;;;5090923;28;19912;-72
2022/04/28 01:31:10;;;;;;;;;;;;;;;;;;5073152;28;19986;-72
2022/04/28 01:33:36;;;;;;;;;;;;;;;;;;5091363;28;19912;-72
2022/04/28 01:36:02;;;;;;;;;;;;;;;;;;5091215;28;19915;-72
2022/04/28 01:38:28;;;;;;;;;;;;;;;;;;5094865;28;19912;-72
2022/04/28 01:40:53;;;;;;;;;;;;;;;;;;5094867;28;19965;-73
2022/04/28 01:43:19;;;;;;;;;;;;;;;;;;5095257;28;19912;-72
2022/04/28 01:45:45;;;;;;;;;;;;;;;;;;5094914;28;20283;-73
2022/04/28 01:48:11;;;;;;;;;;;;;;;;;;5094915;28;19958;-74
2022/04/28 01:50:37;;;;;;;;;;;;;;;;;;5094712;28;20371;-72
2022/04/28 01:55:47;;;;;;;;;;;;;;;;;;5094964;28;19935;-74
2022/04/28 01:58:13;;;;;;;;;;;;;;;;;;5094546;28;20376;-75
2022/04/28 02:00:39;;;;;;;;;;;;;;;;;;5094419;28;19912;-73
2022/04/28 02:03:06;;;;;;;;;;;;;;;;;;5094734;28;20006;-73
2022/04/28 02:05:32;;;;;;;;;;;;;;;;;;5094845;28;19912;-74
2022/04/28 02:07:59;;;;;;;;;;;;;;;;;;5094400;28;19912;-73
2022/04/28 02:10:25;;;;;;;;;;;;;;;;;;5094404;28;20004;-72
2022/04/28 02:12:52;;;;;;;;;;;;;;;;;;5094454;28;19959;-73
2022/04/28 02:15:18;;;;;;;;;;;;;;;;;;5094633;28;19977;-73
2022/04/28 02:17:44;;;;;;;;;;;;;;;;;;5094364;28;20379;-75
2022/04/28 02:20:10;;;;;;;;;;;;;;;;;;5094091;28;19922;-72
2022/04/28 02:22:36;;;;;;;;;;;;;;;;;;5094488;28;19909;-75
2022/04/28 02:25:02;;;;;;;;;;;;;;;;;;5094366;28;19908;-74
2022/04/28 02:27:28;;;;;;;;;;;;;;;;;;5094337;28;20481;-75
2022/04/28 02:29:53;;;;;;;;;;;;;;;;;;5093881;28;19912;-74
2022/04/28 02:32:19;;;;;;;;;;;;;;;;;;5094277;28;19951;-74
2022/04/28 02:34:45;;;;;;;;;;;;;;;;;;5094304;28;19961;-74
2022/04/28 02:37:11;;;;;;;;;;;;;;;;;;5094035;28;20295;-74
2022/04/28 02:39:37;;;;;;;;;;;;;;;;;;5093713;28;19972;-74
2022/04/28 02:42:03;;;;;;;;;;;;;;;;;;5075969;28;19958;-74
2022/04/28 02:44:29;;;;;;;;;;;;;;;;;;5094076;28;19910;-74
2022/04/28 02:46:55;;;;;;;;;;;;;;;;;;5093950;28;19912;-74
2022/04/28 02:49:20;;;;;;;;;;;;;;;;;;5092462;28;19916;-74
2022/04/28 02:51:46;;;;;;;;;;;;;;;;;;5075769;28;19912;-71
2022/04/28 02:54:12;;;;;;;;;;;;;;;;;;5093868;28;20447;-72
2022/04/28 02:56:38;;;;;;;;;;;;;;;;;;5093729;28;19912;-71
2022/04/28 02:59:05;;;;;;;;;;;;;;;;;;5092884;28;19962;-72
2022/04/28 03:01:30;;;;;;;;;;;;;;;;;;5093826;28;19935;-72
2022/04/28 03:03:56;;;;;;;;;;;;;;;;;;5093513;28;19955;-72
2022/04/28 03:11:52;;;;;;;;;;;;;;;;;;5093525;28;19919;-71
2022/04/28 03:14:18;;;;;;;;;;;;;;;;;;5093418;28;19912;-72
2022/04/28 03:16:44;;;;;;;;;;;;;;;;;;5093406;28;19908;-74
2022/04/28 03:19:10;;;;;;;;;;;;;;;;;;5092840;28;20398;-74
2022/04/28 03:21:37;;;;;;;;;;;;;;;;;;5075261;28;19915;-75
2022/04/28 03:24:03;;;;;;;;;;;;;;;;;;5093178;28;19947;-73
2022/04/28 03:26:31;;;;;;;;;;;;;;;;;;5092530;28;20408;-73
2022/04/28 03:28:56;;;;;;;;;;;;;;;;;;5074198;28;19912;-73
2022/04/28 03:31:22;;;;;;;;;;;;;;;;;;5093119;28;19908;-73
2022/04/28 03:33:48;;;;;;;;;;;;;;;;;;5093025;28;19913;-73
2022/04/28 03:38:59;;;;;;;;;;;;;;;;;;5092329;28;19941;-74
2022/04/28 03:41:24;;;;;;;;;;;;;;;;;;5092978;28;19908;-73
2022/04/28 03:43:50;;;;;;;;;;;;;;;;;;5092725;28;19954;-74
2022/04/28 03:46:18;;;;;;;;;;;;;;;;;;5092824;28;20328;-73
2022/04/28 03:48:43;;;;;;;;;;;;;;;;;;5092332;28;19908;-73
2022/04/28 03:51:09;;;;;;;;;;;;;;;;;;5092758;28;19919;-73
2022/04/28 03:53:35;;;;;;;;;;;;;;;;;;5092690;28;19912;-73
2022/04/28 03:56:01;;;;;;;;;;;;;;;;;;5092574;28;20387;-73
2022/04/28 03:58:27;;;;;;;;;;;;;;;;;;5092072;28;19912;-73
2022/04/28 04:00:53;;;;;;;;;;;;;;;;;;5092072;28;19923;-75
2022/04/28 04:03:21;;;;;;;;;;;;;;;;;;5092546;28;19908;-74
2022/04/28 04:05:47;;;;;;;;;;;;;;;;;;5092403;28;19908;-74
2022/04/28 04:08:13;;;;;;;;;;;;;;;;;;5092330;28;19908;-73
2022/04/28 04:10:39;;;;;;;;;;;;;;;;;;5091993;28;20368;-74
2022/04/28 04:13:05;;;;;;;;;;;;;;;;;;5092269;28;19950;-73
2022/04/28 04:15:32;;;;;;;;;;;;;;;;;;5092433;28;19915;-73
2022/04/28 04:17:58;;;;;;;;;;;;;;;;;;5091928;28;19912;-73
2022/04/28 04:20:24;;;;;;;;;;;;;;;;;;5091888;28;20283;-74
2022/04/28 04:22:50;;;;;;;;;;;;;;;;;;5092098;28;19915;-74
2022/04/28 04:25:15;;;;;;;;;;;;;;;;;;5092123;28;20283;-73
2022/04/28 04:27:41;;;;;;;;;;;;;;;;;;5091986;28;19915;-73
2022/04/28 04:32:52;;;;;;;;;;;;;;;;;;5075862;28;19923;-73
2022/04/28 04:35:18;;;;;;;;;;;;;;;;;;5071556;28;19913;-73
2022/04/28 04:37:44;;;;;;;;;;;;;;;;;;5071669;28;19999;-73
2022/04/28 04:40:10;;;;;;;;;;;;;;;;;;5071478;28;19970;-73
2022/04/28 04:42:36;;;;;;;;;;;;;;;;;;5071573;28;19955;-73
2022/04/28 04:45:02;;;;;;;;;;;;;;;;;;5071568;28;19908;-74
2022/04/28 04:47:28;;;;;;;;;;;;;;;;;;5072581;28;19934;-73
2022/04/28 04:49:54;;;;;;;;;;;;;;;;;;5071432;28;19908;-73
2022/04/28 04:52:19;;;;;;;;;;;;;;;;;;5072058;28;19955;-72
2022/04/28 04:54:45;;;;;;;;;;;;;;;;;;5072002;28;19904;-73
2022/04/28 04:57:11;;;;;;;;;;;;;;;;;;5071804;28;19935;-73
2022/04/28 04:59:37;;;;;;;;;;;;;;;;;;5070992;28;19920;-71
2022/04/28 05:02:03;;;;;;;;;;;;;;;;;;5071385;28;19966;-72
2022/04/28 05:04:29;;;;;;;;;;;;;;;;;;5071537;28;19908;-73
2022/04/28 05:06:55;;;;;;;;;;;;;;;;;;5071226;28;20368;-73
2022/04/28 05:09:21;;;;;;;;;;;;;;;;;;5052996;28;19966;-73
2022/04/28 05:11:47;;;;;;;;;;;;;;;;;;5072603;28;19912;-73
2022/04/28 05:14:13;;;;;;;;;;;;;;;;;;5075578;28;19999;-75
2022/04/28 05:16:39;;;;;;;;;;;;;;;;;;5075731;28;19913;-74
2022/04/28 05:19:04;;;;;;;;;;;;;;;;;;5069625;28;19977;-74
2022/04/28 05:21:30;;;;;;;;;;;;;;;;;;5070057;28;19912;-73
2022/04/28 05:23:56;;;;;;;;;;;;;;;;;;5075018;28;20361;-73
2022/04/28 05:26:22;;;;;;;;;;;;;;;;;;5057480;28;19915;-73
2022/04/28 05:28:48;;;;;;;;;;;;;;;;;;5064417;28;19920;-73
2022/04/28 05:31:14;;;;;;;;;;;;;;;;;;5076209;28;19919;-75
2022/04/28 05:33:42;;;;;;;;;;;;;;;;;;5092161;28;19912;-75
2022/04/28 05:36:09;;;;;;;;;;;;;;;;;;5084695;28;20519;-75
2022/04/28 05:38:35;;;;;;;;;;;;;;;;;;5067822;28;19962;-75
2022/04/28 05:41:00;;;;;;;;;;;;;;;;;;5076990;28;19924;-75
2022/04/28 05:46:11;;;;;;;;;;;;;;;;;;5083116;28;19951;-73
2022/04/28 05:48:37;;;;;;;;;;;;;;;;;;5049630;28;19948;-75
2022/04/28 05:51:03;;;;;;;;;;;;;;;;;;5068010;28;19920;-76
2022/04/28 05:53:29;;;;;;;;;;;;;;;;;;5071667;28;19915;-76
2022/04/28 05:55:54;;;;;;;;;;;;;;;;;;5067385;28;19978;-77
2022/04/28 05:58:20;;;;;;;;;;;;;;;;;;5075551;28;20314;-79
2022/04/28 06:00:46;;;;;;;;;;;;;;;;;;5094504;28;19924;-76
2022/04/28 06:03:12;;;;;;;;;;;;;;;;;;5094749;28;19994;-77
2022/04/28 06:05:38;;;;;;;;;;;;;;;;;;5094484;28;19935;-75
2022/04/28 06:08:04;;;;;;;;;;;;;;;;;;5083329;28;19952;-76
2022/04/28 06:10:30;;;;;;;;;;;;;;;;;;5066636;28;19970;-76
2022/04/28 06:12:56;;;;;;;;;;;;;;;;;;5065133;28;19908;-77
2022/04/28 06:15:22;;;;;;;;;;;;;;;;;;5063902;28;19916;-75
2022/04/28 06:17:47;;;;;;;;;;;;;;;;;;5084524;28;20421;-76
2022/04/28 06:20:13;;;;;;;;;;;;;;;;;;5092138;28;20294;-75
2022/04/28 06:22:39;;;;;;;;;;;;;;;;;;5090069;28;19915;-76
2022/04/28 06:25:05;;;;;;;;;;;;;;;;;;5068559;28;19912;-76
2022/04/28 06:27:31;;;;;;;;;;;;;;;;;;5055884;28;20310;-76
2022/04/28 06:29:57;;;;;;;;;;;;;;;;;;5073732;28;20000;-75
2022/04/28 06:32:23;;;;;;;;;;;;;;;;;;5073689;28;19939;-76
2022/04/28 06:34:49;;;;;;;;;;;;;;;;;;5073693;28;20439;-75
2022/04/28 06:37:15;;;;;;;;;;;;;;;;;;5055953;28;19912;-76
2022/04/28 06:39:41;;;;;;;;;;;;;;;;;;5073387;28;19970;-77
2022/04/28 06:42:07;;;;;;;;;;;;;;;;;;5073780;28;19908;-75
2022/04/28 06:44:33;;;;;;;;;;;;;;;;;;5055960;28;19913;-75
2022/04/28 06:46:59;;;;;;;;;;;;;;;;;;5073730;28;20283;-77
2022/04/28 06:49:25;;;;;;;;;;;;;;;;;;5073389;28;19909;-76
2022/04/28 06:51:51;;;;;;;;;;;;;;;;;;5073657;28;19947;-76
2022/04/28 06:54:16;;;;;;;;;;;;;;;;;;5073544;28;19908;-77
2022/04/28 06:56:42;;;;;;;;;;;;;;;;;;5073604;28;19908;-76
2022/04/28 06:59:08;;;;;;;;;;;;;;;;;;5072756;28;20003;-76
2022/04/28 07:01:34;;;;;;;;;;;;;;;;;;5073529;28;19908;-76
2022/04/28 07:04:01;;;;;;;;;;;;;;;;;;5073345;28;20424;-76
2022/04/28 07:06:27;;;;;;;;;;;;;;;;;;5073536;28;19913;-76
2022/04/28 07:08:53;;;;;;;;;;;;;;;;;;5072793;28;19975;-76
2022/04/28 07:11:19;;;;;;;;;;;;;;;;;;5073305;28;19908;-76
2022/04/28 07:13:45;;;;;;;;;;;;;;;;;;5073020;28;20330;-76
2022/04/28 07:16:11;;;;;;;;;;;;;;;;;;5073232;28;19908;-76
2022/04/28 07:18:36;;;;;;;;;;;;;;;;;;5054719;28;19947;-76
2022/04/28 07:21:02;;;;;;;;;;;;;;;;;;5072890;28;19947;-77
2022/04/28 07:23:28;;;;;;;;;;;;;;;;;;5073083;28;19932;-76
2022/04/28 07:25:54;;;;;;;;;;;;;;;;;;5073114;28;19909;-76
2022/04/28 07:28:20;;;;;;;;;;;;;;;;;;5054866;28;19908;-77
2022/04/28 07:30:46;;;;;;;;;;;;;;;;;;5072701;28;20322;-76
2022/04/28 07:33:12;;;;;;;;;;;;;;;;;;5072885;28;19943;-76
2022/04/28 07:35:37;;;;;;;;;;;;;;;;;;5072307;28;19909;-76
2022/04/28 07:38:03;;;;;;;;;;;;;;;;;;5072448;28;19955;-77
2022/04/28 07:40:30;;;;;;;;;;;;;;;;;;5072320;28;19912;-77
2022/04/28 07:42:55;;;;;;;;;;;;;;;;;;5072581;28;19916;-77
2022/04/28 07:45:22;;;;;;;;;;;;;;;;;;5072626;28;19912;-77
2022/04/28 07:47:49;;;;;;;;;;;;;;;;;;5072570;28;19922;-77
2022/04/28 07:50:14;;;;;;;;;;;;;;;;;;5072305;28;19916;-77
2022/04/28 07:52:40;;;;;;;;;;;;;;;;;;5054501;28;19908;-77
2022/04/28 07:55:06;;;;;;;;;;;;;;;;;;5054430;28;19908;-77
2022/04/28 07:57:32;;;;;;;;;;;;;;;;;;5072454;28;19958;-77
2022/04/28 07:59:58;;;;;;;;;;;;;;;;;;5071807;28;19926;-77
2022/04/28 08:02:24;;;;;;;;;;;;;;;;;;5072569;28;19908;-77
2022/04/28 08:04:50;;;;;;;;;;;;;;;;;;5072173;28;20445;-77
2022/04/28 08:07:16;;;;;;;;;;;;;;;;;;5072086;28;19955;-78
2022/04/28 08:09:42;;;;;;;;;;;;;;;;;;5071748;28;19916;-78
2022/04/28 08:12:09;;;;;;;;;;;;;;;;;;5072082;28;19908;-78
2022/04/28 08:14:35;;;;;;;;;;;;;;;;;;5072195;28;19947;-77
2022/04/28 08:17:01;;;;;;;;;;;;;;;;;;5071944;28;19943;-78
2022/04/28 08:19:27;;;;;;;;;;;;;;;;;;5071862;28;19966;-77
2022/04/28 08:21:52;;;;;;;;;;;;;;;;;;5054018;28;19913;-77
2022/04/28 08:24:18;;;;;;;;;;;;;;;;;;5072062;28;19908;-78
2022/04/28 08:26:44;;;;;;;;;;;;;;;;;;5071936;28;19938;-77
2022/04/28 08:29:10;;;;;;;;;;;;;;;;;;5071521;28;19995;-78
2022/04/28 08:31:43;;;;;;;;;;;;;;;;;;5071883;28;19915;-77
2022/04/28 08:34:09;;;;;;;;;;;;;;;;;;5071875;28;20292;-77
2022/04/28 08:36:35;;;;;;;;;;;;;;;;;;5071885;28;19916;-78
2022/04/28 08:39:01;;;;;;;;;;;;;;;;;;5071178;28;20003;-77
2022/04/28 08:41:27;;;;;;;;;;;;;;;;;;5071775;28;19915;-78
2022/04/28 08:43:52;;;;;;;;;;;;;;;;;;5053636;28;20376;-78
2022/04/28 08:49:03;;;;;;;;;;;;;;;;;;5071178;28;19962;-79
2022/04/28 08:51:29;;;;;;;;;;;;;;;;;;5071792;28;19912;-77
2022/04/28 08:53:55;;;;;;;;;;;;;;;;;;5071503;28;19913;-78
2022/04/28 08:56:21;;;;;;;;;;;;;;;;;;5053502;28;20292;-78
2022/04/28 08:58:47;;;;;;;;;;;;;;;;;;5070985;28;20287;-78
2022/04/28 09:01:13;;;;;;;;;;;;;;;;;;5071416;28;19936;-79
2022/04/28 09:03:40;;;;;;;;;;;;;;;;;;5071486;28;20004;-78
2022/04/28 09:06:06;;;;;;;;;;;;;;;;;;5071370;28;19914;-78
2022/04/28 09:08:32;;;;;;;;;;;;;;;;;;5070986;28;19912;-77
2022/04/28 09:11:00;;;;;;;;;;;;;;;;;;5071150;28;20390;-77
2022/04/28 09:16:11;;;;;;;;;;;;;;;;;;5071393;28;19915;-78
2022/04/28 09:18:36;;;;;;;;;;;;;;;;;;5070898;28;19909;-78
2022/04/28 09:21:04;;;;;;;;;;;;;;;;;;5070893;28;20364;-78
2022/04/28 09:23:30;;;;;;;;;;;;;;;;;;5071242;28;19909;-78
2022/04/28 09:25:56;;;;;;;;;;;;;;;;;;5071097;28;19934;-78
2022/04/28 09:28:22;;;;;;;;;;;;;;;;;;5071056;28;19908;-78
2022/04/28 09:30:49;;;;;;;;;;;;;;;;;;5053005;28;20395;-78
2022/04/28 09:33:15;;;;;;;;;;;;;;;;;;5071251;28;19919;-77
2022/04/28 09:35:41;;;;;;;;;;;;;;;;;;5071077;28;20011;-77
2022/04/28 09:38:07;;;;;;;;;;;;;;;;;;5070894;28;19916;-77
2022/04/28 09:43:17;;;;;;;;;;;;;;;;;;5071233;28;19931;-78
2022/04/28 09:45:43;;;;;;;;;;;;;;;;;;5071150;28;20369;-77
2022/04/28 09:48:09;;;;;;;;;;;;;;;;;;5070843;28;19912;-77
2022/04/28 09:50:35;;;;;;;;;;;;;;;;;;5069586;28;19934;-77
2022/04/28 09:53:01;;;;;;;;;;;;;;;;;;5070769;28;19995;-78
2022/04/28 09:55:27;;;;;;;;;;;;;;;;;;5071121;28;19908;-77
2022/04/28 09:57:53;;;;;;;;;;;;;;;;;;5071994;28;19959;-77
2022/04/28 10:00:20;;;;;;;;;;;;;;;;;;5074239;28;20351;-78
2022/04/28 10:02:46;;;;;;;;;;;;;;;;;;5074655;28;19908;-77
2022/04/28 10:05:11;;;;;;;;;;;;;;;;;;5074667;28;19912;-78
2022/04/28 10:07:37;;;;;;;;;;;;;;;;;;5056481;28;20337;-77
2022/04/28 10:10:03;;;;;;;;;;;;;;;;;;5074221;28;19912;-78
2022/04/28 10:12:29;;;;;;;;;;;;;;;;;;5074531;28;19909;-77
2022/04/28 10:14:55;;;;;;;;;;;;;;;;;;5074638;28;19971;-77
2022/04/28 10:17:22;;;;;;;;;;;;;;;;;;5074917;28;19923;-78
2022/04/28 10:19:48;;;;;;;;;;;;;;;;;;5075163;28;19913;-77
2022/04/28 10:22:14;;;;;;;;;;;;;;;;;;5074507;28;19913;-77
2022/04/28 10:32:57;;;;;;;;;;;;;;;;;;5074443;28;19954;-78
2022/04/28 10:35:23;;;;;;;;;;;;;;;;;;5072147;28;20395;-77
2022/04/28 10:37:49;;;;;;;;;;;;;;;;;;5073703;28;19940;-77
2022/04/28 10:40:16;;;;;;;;;;;;;;;;;;5055360;28;19920;-77
2022/04/28 10:42:42;;;;;;;;;;;;;;;;;;5073985;28;19962;-77
2022/04/28 10:45:08;;;;;;;;;;;;;;;;;;5073814;28;19913;-77
2022/04/28 10:47:34;;;;;;;;;;;;;;;;;;5073539;28;19935;-78
2022/04/28 10:50:00;;;;;;;;;;;;;;;;;;5073330;28;20371;-77
2022/04/28 10:52:26;;;;;;;;;;;;;;;;;;5073568;28;20047;-77
2022/04/28 10:54:52;;;;;;;;;;;;;;;;;;5073696;28;19908;-77
2022/04/28 10:57:19;;;;;;;;;;;;;;;;;;5073718;28;19912;-77
2022/04/28 10:59:45;;;;;;;;;;;;;;;;;;5073189;28;19955;-77
2022/04/28 11:02:11;;;;;;;;;;;;;;;;;;5073583;28;19908;-77
2022/04/28 11:04:37;;;;;;;;;;;;;;;;;;5073555;28;20003;-77
2022/04/28 11:07:03;;;;;;;;;;;;;;;;;;5073625;28;19915;-77
2022/04/28 11:09:29;;;;;;;;;;;;;;;;;;5072162;28;20323;-77
2022/04/28 11:11:56;;;;;;;;;;;;;;;;;;5073202;28;20430;-78
2022/04/28 11:14:21;;;;;;;;;;;;;;;;;;5055543;28;19938;-77
2022/04/28 11:16:47;;;;;;;;;;;;;;;;;;5072962;28;19909;-77
2022/04/28 11:19:13;;;;;;;;;;;;;;;;;;5072684;28;20394;-77
2022/04/28 11:21:40;;;;;;;;;;;;;;;;;;5055266;28;19961;-77
2022/04/28 11:24:06;;;;;;;;;;;;;;;;;;5073155;28;19961;-77
2022/04/28 11:26:32;;;;;;;;;;;;;;;;;;5073222;28;20003;-77
2022/04/28 11:28:58;;;;;;;;;;;;;;;;;;5072610;28;20000;-77
2022/04/28 11:31:23;;;;;;;;;;;;;;;;;;5055234;28;19909;-77
2022/04/28 11:33:49;;;;;;;;;;;;;;;;;;5072734;28;19912;-80
2022/04/28 11:36:15;;;;;;;;;;;;;;;;;;5054897;28;19908;-78
2022/04/28 11:38:42;;;;;;;;;;;;;;;;;;5072419;28;19908;-77
2022/04/28 11:41:08;;;;;;;;;;;;;;;;;;5072206;28;19923;-77
2022/04/28 11:43:36;;;;;;;;;;;;;;;;;;5072531;28;19908;-77
2022/04/28 11:46:02;;;;;;;;;;;;;;;;;;5072269;28;19908;-77
2022/04/28 11:48:28;;;;;;;;;;;;;;;;;;5054323;28;20287;-77
2022/04/28 11:50:54;;;;;;;;;;;;;;;;;;5054789;28;19920;-78
2022/04/28 11:53:20;;;;;;;;;;;;;;;;;;5054630;28;19908;-78
2022/04/28 11:55:48;;;;;;;;;;;;;;;;;;5072463;28;19909;-77
2022/04/28 11:58:15;;;;;;;;;;;;;;;;;;5072218;28;20375;-77
2022/04/28 12:00:41;;;;;;;;;;;;;;;;;;5053956;28;19994;-79
2022/04/28 12:03:07;;;;;;;;;;;;;;;;;;5070469;28;20007;-78
2022/04/28 12:05:34;;;;;;;;;;;;;;;;;;5072122;28;19912;-78
2022/04/28 12:08:00;;;;;;;;;;;;;;;;;;5071660;28;20025;-79
2022/04/28 12:15:55;;;;;;;;;;;;;;;;;;5071739;28;19913;-78
2022/04/28 12:21:06;;;;;;;;;;;;;;;;;;5071868;28;19920;-78
2022/04/28 12:23:32;;;;;;;;;;;;;;;;;;5071273;28;20007;-77
2022/04/28 12:25:58;;;;;;;;;;;;;;;;;;5052884;28;20007;-78
2022/04/28 12:28:25;;;;;;;;;;;;;;;;;;5070927;28;20315;-77
2022/04/28 12:30:51;;;;;;;;;;;;;;;;;;5070629;28;19931;-77
2022/04/28 12:33:16;;;;;;;;;;;;;;;;;;5052751;28;20532;-78
2022/04/28 12:35:43;;;;;;;;;;;;;;;;;;5068145;28;20011;-78
2022/04/28 12:38:10;;;;;;;;;;;;;;;;;;5070382;28;19913;-79
2022/04/28 12:40:36;;;;;;;;;;;;;;;;;;5049352;28;19917;-79
2022/04/28 12:43:02;;;;;;;;;;;;;;;;;;5072120;28;19924;-82
2022/04/28 12:45:28;;;;;;;;;;;;;;;;;;5065052;28;19913;-82
2022/04/28 12:47:54;;;;;;;;;;;;;;;;;;5044445;28;19958;-82
2022/04/28 12:50:20;;;;;;;;;;;;;;;;;;5075535;28;19908;-79
2022/04/28 12:52:46;;;;;;;;;;;;;;;;;;5049076;28;20391;-81
2022/04/28 12:55:13;;;;;;;;;;;;;;;;;;5051956;28;19974;-80
2022/04/28 12:57:39;;;;;;;;;;;;;;;;;;5047762;28;19912;-80
2022/04/28 13:00:04;;;;;;;;;;;;;;;;;;5039220;28;19924;-80
2022/04/28 13:02:30;;;;;;;;;;;;;;;;;;5063417;28;20384;-81
2022/04/28 13:04:56;;;;;;;;;;;;;;;;;;5075508;28;20003;-80
2022/04/28 13:07:22;;;;;;;;;;;;;;;;;;5090410;28;19958;-80
2022/04/28 13:09:48;;;;;;;;;;;;;;;;;;5063533;28;20056;-81
2022/04/28 13:12:14;;;;;;;;;;;;;;;;;;5073717;28;19912;-81
2022/04/28 13:14:40;;;;;;;;;;;;;;;;;;5055836;28;19915;-84
2022/04/28 13:17:06;;;;;;;;;;;;;;;;;;5056190;28;19908;-80
2022/04/28 13:19:32;;;;;;;;;;;;;;;;;;5055235;28;20143;-81
2022/04/28 13:21:58;;;;;;;;;;;;;;;;;;5073216;28;19912;-81
2022/04/28 13:24:24;;;;;;;;;;;;;;;;;;5045001;28;19920;-80
2022/04/28 13:26:49;;;;;;;;;;;;;;;;;;5053017;28;19916;-79
2022/04/28 13:29:15;;;;;;;;;;;;;;;;;;5053837;28;20385;-81
2022/04/28 13:31:41;;;;;;;;;;;;;;;;;;5035170;28;19916;-80
2022/04/28 13:34:08;;;;;;;;;;;;;;;;;;5068977;28;20449;-81
2022/04/28 13:36:34;;;;;;;;;;;;;;;;;;5059932;28;19957;-81
2022/04/28 13:39:00;;;;;;;;;;;;;;;;;;5059554;28;19912;-81
2022/04/28 13:41:26;;;;;;;;;;;;;;;;;;5077162;28;19916;-81
2022/04/28 13:43:52;;;;;;;;;;;;;;;;;;5059405;28;19909;-81
2022/04/28 13:46:21;;;;;;;;;;;;;;;;;;5078309;28;19908;-81
2022/04/28 13:48:47;;;;;;;;;;;;;;;;;;5060321;28;19909;-82
2022/04/28 13:51:12;;;;;;;;;;;;;;;;;;5059448;28;20010;-82
2022/04/28 13:53:39;;;;;;;;;;;;;;;;;;5058712;28;20260;-83
2022/04/28 13:56:04;;;;;;;;;;;;;;;;;;5057895;28;19916;-80
2022/04/28 13:58:30;;;;;;;;;;;;;;;;;;5078667;28;19970;-80
2022/04/28 14:00:56;;;;;;;;;;;;;;;;;;5075357;28;20323;-80
2022/04/28 14:03:22;;;;;;;;;;;;;;;;;;5082502;28;20440;-79
2022/04/28 14:05:48;;;;;;;;;;;;;;;;;;5077775;28;19908;-79
2022/04/28 14:08:14;;;;;;;;;;;;;;;;;;5064245;28;20279;-79
2022/04/28 14:10:40;;;;;;;;;;;;;;;;;;5056331;28;19908;-79
2022/04/28 14:13:06;;;;;;;;;;;;;;;;;;5074790;28;19908;-80
2022/04/28 14:15:32;;;;;;;;;;;;;;;;;;5078436;28;19922;-80
2022/04/28 14:17:58;;;;;;;;;;;;;;;;;;5073959;28;19955;-79
2022/04/28 14:20:24;;;;;;;;;;;;;;;;;;5057130;28;19912;-80
2022/04/28 14:22:50;;;;;;;;;;;;;;;;;;5094829;28;19915;-80
2022/04/28 14:25:16;;;;;;;;;;;;;;;;;;5064191;28;19916;-79
2022/04/28 14:27:42;;;;;;;;;;;;;;;;;;5074548;28;20356;-79
2022/04/28 14:30:07;;;;;;;;;;;;;;;;;;5056913;28;19909;-79
2022/04/28 14:32:33;;;;;;;;;;;;;;;;;;5074535;28;19904;-79
2022/04/28 14:34:59;;;;;;;;;;;;;;;;;;5076419;28;20402;-79
2022/04/28 14:37:25;;;;;;;;;;;;;;;;;;5076617;28;19919;-79
2022/04/28 14:39:51;;;;;;;;;;;;;;;;;;5072049;28;19916;-77
2022/04/28 14:42:17;;;;;;;;;;;;;;;;;;5073558;28;20431;-78
2022/04/28 14:44:43;;;;;;;;;;;;;;;;;;5067338;28;19913;-80
2022/04/28 14:47:09;;;;;;;;;;;;;;;;;;5073482;28;19958;-79
2022/04/28 14:52:27;;;;;;;;;;;;;;;;;;5073551;28;19966;-78
2022/04/28 14:54:56;;;;;;;;;;;;;;;;;;5070044;28;19923;-80
2022/04/28 14:57:22;;;;;;;;;;;;;;;;;;5052412;28;19925;-78
2022/04/28 14:59:48;;;;;;;;;;;;;;;;;;5041480;28;19917;-80
2022/04/28 15:02:14;;;;;;;;;;;;;;;;;;5056046;28;19912;-79
2022/04/28 15:04:39;;;;;;;;;;;;;;;;;;5071467;28;19920;-78
2022/04/28 15:07:05;;;;;;;;;;;;;;;;;;5070664;28;19963;-80
2022/04/28 15:09:31;;;;;;;;;;;;;;;;;;5048241;28;19913;-80
2022/04/28 15:11:57;;;;;;;;;;;;;;;;;;5043297;28;19919;-82
2022/04/28 15:14:23;;;;;;;;;;;;;;;;;;5068953;28;20419;-82
2022/04/28 15:16:49;;;;;;;;;;;;;;;;;;5073480;28;19963;-80
2022/04/28 15:19:15;;;;;;;;;;;;;;;;;;5055268;28;19922;-80
2022/04/28 15:21:41;;;;;;;;;;;;;;;;;;5049295;28;19925;-80
2022/04/28 15:24:08;;;;;;;;;;;;;;;;;;5051542;28;20006;-82
2022/04/28 15:26:34;;;;;;;;;;;;;;;;;;5058688;28;19908;-82
2022/04/28 15:29:01;;;;;;;;;;;;;;;;;;5047340;28;20027;-81
2022/04/28 15:31:26;;;;;;;;;;;;;;;;;;5053270;28;19916;-78
2022/04/28 15:33:52;;;;;;;;;;;;;;;;;;5062036;28;19992;-79
2022/04/28 15:36:18;;;;;;;;;;;;;;;;;;5070663;28;19920;-79
2022/04/28 15:38:44;;;;;;;;;;;;;;;;;;5069339;28;19912;-81
2022/04/28 15:41:10;;;;;;;;;;;;;;;;;;5053017;28;19924;-83
2022/04/28 15:43:36;;;;;;;;;;;;;;;;;;5054826;28;19970;-82
2022/04/28 15:46:02;;;;;;;;;;;;;;;;;;5055334;28;19912;-82
2022/04/28 15:48:28;;;;;;;;;;;;;;;;;;5077220;28;20356;-82
2022/04/28 15:50:54;;;;;;;;;;;;;;;;;;5059766;28;20016;-82
2022/04/28 15:53:19;;;;;;;;;;;;;;;;;;5059520;28;19916;-82
2022/04/28 15:55:45;;;;;;;;;;;;;;;;;;5056604;28;19955;-82
2022/04/28 15:58:12;;;;;;;;;;;;;;;;;;5060002;28;19912;-82
2022/04/28 16:00:38;;;;;;;;;;;;;;;;;;5074916;28;19919;-81
2022/04/28 16:03:04;;;;;;;;;;;;;;;;;;5070573;28;19913;-81
2022/04/28 16:05:30;;;;;;;;;;;;;;;;;;5070852;28;19963;-81
2022/04/28 16:07:56;;;;;;;;;;;;;;;;;;5075517;28;19908;-82
2022/04/28 16:10:22;;;;;;;;;;;;;;;;;;5055840;28;19916;-82
2022/04/28 16:12:48;;;;;;;;;;;;;;;;;;5073245;28;19908;-82
2022/04/28 16:15:14;;;;;;;;;;;;;;;;;;5055268;28;19919;-81
2022/04/28 16:17:40;;;;;;;;;;;;;;;;;;5072425;28;19927;-82
2022/04/28 16:20:06;;;;;;;;;;;;;;;;;;5075014;28;20253;-82
2022/04/28 16:22:32;;;;;;;;;;;;;;;;;;5075958;28;19915;-82
2022/04/28 16:24:58;;;;;;;;;;;;;;;;;;5076374;28;20035;-81
2022/04/28 16:27:24;;;;;;;;;;;;;;;;;;5073673;28;20292;-81
2022/04/28 16:29:51;;;;;;;;;;;;;;;;;;5055071;28;19908;-81
2022/04/28 16:32:17;;;;;;;;;;;;;;;;;;5073587;28;19962;-81
2022/04/28 16:34:43;;;;;;;;;;;;;;;;;;5072972;28;19962;-81
2022/04/28 16:37:09;;;;;;;;;;;;;;;;;;5055391;28;19919;-81
2022/04/28 16:39:35;;;;;;;;;;;;;;;;;;5074220;28;19912;-83
2022/04/28 16:42:02;;;;;;;;;;;;;;;;;;5074274;28;20308;-81
2022/04/28 16:44:28;;;;;;;;;;;;;;;;;;5074588;28;19909;-83
2022/04/28 16:46:54;;;;;;;;;;;;;;;;;;5056163;28;19916;-81
2022/04/28 16:49:19;;;;;;;;;;;;;;;;;;5072596;28;20321;-82
2022/04/28 16:51:46;;;;;;;;;;;;;;;;;;5058924;28;19915;-82
2022/04/28 16:54:12;;;;;;;;;;;;;;;;;;5057747;28;19920;-85
2022/04/28 16:56:38;;;;;;;;;;;;;;;;;;5058217;28;19912;-81
2022/04/28 16:59:04;;;;;;;;;;;;;;;;;;5064808;28;20383;-77
2022/04/28 17:01:29;;;;;;;;;;;;;;;;;;5072942;28;19916;-82
2022/04/28 17:04:13;;;;;;;;;;;;;;;;;;5083640;28;19961;-79
2022/04/28 17:06:39;;;;;;;;;;;;;;;;;;5032030;28;19913;-80
2022/04/28 17:09:05;;;;;;;;;;;;;;;;;;5069785;28;19913;-79
2022/04/28 17:11:31;;;;;;;;;;;;;;;;;;5090709;28;19975;-79
2022/04/28 17:14:02;;;;;;;;;;;;;;;;;;5069531;28;20364;-79
2022/04/28 17:16:27;;;;;;;;;;;;;;;;;;5072800;28;20303;-79
2022/04/28 17:18:53;;;;;;;;;;;;;;;;;;5052021;28;19909;-80
2022/04/28 17:21:19;;;;;;;;;;;;;;;;;;5053195;28;19989;-80
2022/04/28 17:23:46;;;;;;;;;;;;;;;;;;5046671;28;19913;-80